createdAt,value
2022-07-26T00:00:16.000Z,41.93
2022-07-26T00:01:18.000Z,42.11
2022-07-26T00:02:14.000Z,42.31
2022-07-26T00:03:14.000Z,42.44
2022-07-26T00:04:14.000Z,42.76
2022-07-26T00:05:15.000Z,42.96
2022-07-26T00:06:15.000Z,42.76
2022-07-26T00:07:14.000Z,42.90
2022-07-26T00:08:14.000Z,43.23
2022-07-26T00:09:14.000Z,43.34
2022-07-26T00:10:14.000Z,43.26
2022-07-26T00:11:14.000Z,43.52
2022-07-26T00:12:14.000Z,43.46
2022-07-26T00:13:18.000Z,43.37
2022-07-26T00:14:14.000Z,43.47
2022-07-26T00:15:13.000Z,43.62
2022-07-26T00:16:13.000Z,43.67
2022-07-26T00:17:14.000Z,43.54
2022-07-26T00:18:14.000Z,43.41
2022-07-26T00:19:13.000Z,43.59
2022-07-26T00:20:13.000Z,43.82
2022-07-26T00:21:13.000Z,43.58
2022-07-26T00:22:18.000Z,43.58
2022-07-26T00:23:14.000Z,43.50
2022-07-26T00:24:13.000Z,44.04
2022-07-26T00:25:13.000Z,43.90
2022-07-26T00:26:13.000Z,43.56
2022-07-26T00:27:13.000Z,43.58
2022-07-26T00:28:13.000Z,43.80
2022-07-26T00:29:13.000Z,43.49
2022-07-26T00:30:13.000Z,43.67
2022-07-26T00:31:13.000Z,43.54
2022-07-26T00:32:13.000Z,43.51
2022-07-26T00:33:13.000Z,43.56
2022-07-26T00:34:13.000Z,43.67
2022-07-26T00:35:13.000Z,43.67
2022-07-26T00:36:13.000Z,43.69
2022-07-26T00:37:13.000Z,43.57
2022-07-26T00:38:14.000Z,43.72
2022-07-26T00:39:13.000Z,43.78
2022-07-26T00:40:15.000Z,43.86
2022-07-26T00:41:13.000Z,43.59
2022-07-26T00:42:13.000Z,43.76
2022-07-26T00:43:14.000Z,43.73
2022-07-26T00:44:13.000Z,43.54
2022-07-26T00:45:14.000Z,43.67
2022-07-26T00:46:13.000Z,43.65
2022-07-26T00:47:14.000Z,43.56
2022-07-26T00:48:15.000Z,43.58
2022-07-26T00:49:14.000Z,43.55
2022-07-26T00:50:15.000Z,43.41
2022-07-26T00:51:13.000Z,43.65
2022-07-26T00:52:14.000Z,43.63
2022-07-26T00:53:18.000Z,43.51
2022-07-26T00:54:15.000Z,43.44
2022-07-26T00:55:14.000Z,43.61
2022-07-26T00:56:15.000Z,43.86
2022-07-26T00:57:14.000Z,43.82
2022-07-26T00:58:15.000Z,43.69
2022-07-26T00:59:14.000Z,43.62
2022-07-26T01:00:17.000Z,43.56
2022-07-26T01:01:13.000Z,43.79
2022-07-26T01:02:14.000Z,43.72
2022-07-26T01:03:13.000Z,43.68
2022-07-26T01:04:14.000Z,43.86
2022-07-26T01:05:14.000Z,43.74
2022-07-26T01:06:13.000Z,43.86
2022-07-26T01:07:14.000Z,44.07
2022-07-26T01:08:13.000Z,44.58
2022-07-26T01:09:14.000Z,44.74
2022-07-26T01:10:14.000Z,44.90
2022-07-26T01:11:13.000Z,45.19
2022-07-26T01:12:14.000Z,45.34
2022-07-26T01:13:19.000Z,45.21
2022-07-26T01:14:21.000Z,45.60
2022-07-26T01:15:15.000Z,45.44
2022-07-26T01:16:14.000Z,45.88
2022-07-26T01:17:14.000Z,45.73
2022-07-26T01:18:14.000Z,46.04
2022-07-26T01:19:14.000Z,46.04
2022-07-26T01:20:14.000Z,46.31
2022-07-26T01:21:14.000Z,46.48
2022-07-26T01:22:14.000Z,45.90
2022-07-26T01:23:14.000Z,46.04
2022-07-26T01:24:14.000Z,45.86
2022-07-26T01:25:14.000Z,46.69
2022-07-26T01:26:13.000Z,46.64
2022-07-26T01:27:14.000Z,47.04
2022-07-26T01:28:14.000Z,47.45
2022-07-26T01:29:14.000Z,46.77
2022-07-26T01:30:14.000Z,46.94
2022-07-26T01:31:14.000Z,47.04
2022-07-26T01:32:14.000Z,47.12
2022-07-26T01:33:14.000Z,47.87
2022-07-26T01:34:14.000Z,47.56
2022-07-26T01:35:14.000Z,48.04
2022-07-26T01:36:14.000Z,48.40
2022-07-26T01:37:14.000Z,48.19
2022-07-26T01:38:13.000Z,48.84
2022-07-26T01:39:13.000Z,48.73
2022-07-26T01:40:14.000Z,48.72
2022-07-26T01:41:14.000Z,49.07
2022-07-26T01:42:14.000Z,49.13
2022-07-26T01:43:13.000Z,48.97
2022-07-26T01:44:13.000Z,49.26
2022-07-26T01:45:14.000Z,49.50
2022-07-26T01:46:14.000Z,49.51
2022-07-26T01:47:14.000Z,49.59
2022-07-26T01:48:14.000Z,49.63
2022-07-26T01:49:14.000Z,49.59
2022-07-26T01:50:15.000Z,49.90
2022-07-26T01:51:14.000Z,50.00
2022-07-26T01:52:13.000Z,50.14
2022-07-26T01:53:14.000Z,49.75
2022-07-26T01:54:13.000Z,49.52
2022-07-26T01:55:14.000Z,49.63
2022-07-26T01:56:14.000Z,50.50
2022-07-26T01:57:13.000Z,50.58
2022-07-26T01:58:14.000Z,50.28
2022-07-26T01:59:14.000Z,50.70
2022-07-26T02:00:14.000Z,51.10
2022-07-26T02:01:14.000Z,51.23
2022-07-26T02:02:13.000Z,50.57
2022-07-26T02:03:13.000Z,50.64
2022-07-26T02:04:19.000Z,51.62
2022-07-26T02:05:14.000Z,51.23
2022-07-26T02:06:14.000Z,51.20
2022-07-26T02:07:14.000Z,51.40
2022-07-26T02:08:14.000Z,51.36
2022-07-26T02:09:13.000Z,51.77
2022-07-26T02:10:14.000Z,51.76
2022-07-26T02:11:14.000Z,52.04
2022-07-26T02:12:14.000Z,51.72
2022-07-26T02:13:14.000Z,51.29
2022-07-26T02:14:13.000Z,52.00
2022-07-26T02:15:14.000Z,52.36
2022-07-26T02:16:14.000Z,52.19
2022-07-26T02:17:14.000Z,52.11
2022-07-26T02:18:14.000Z,52.33
2022-07-26T02:19:14.000Z,52.91
2022-07-26T02:20:15.000Z,53.43
2022-07-26T02:21:14.000Z,53.29
2022-07-26T02:22:14.000Z,53.88
2022-07-26T02:23:14.000Z,54.50
2022-07-26T02:24:14.000Z,54.23
2022-07-26T02:25:14.000Z,54.68
2022-07-26T02:26:14.000Z,54.09
2022-07-26T02:27:14.000Z,54.19
2022-07-26T02:28:15.000Z,54.02
2022-07-26T02:29:14.000Z,54.10
2022-07-26T02:30:14.000Z,54.30
2022-07-26T02:31:14.000Z,54.10
2022-07-26T02:32:14.000Z,55.29
2022-07-26T02:33:15.000Z,55.64
2022-07-26T02:34:15.000Z,55.76
2022-07-26T02:35:14.000Z,55.50
2022-07-26T02:36:14.000Z,55.57
2022-07-26T02:37:14.000Z,56.03
2022-07-26T02:38:15.000Z,56.13
2022-07-26T02:39:15.000Z,55.67
2022-07-26T02:40:14.000Z,55.61
2022-07-26T02:41:14.000Z,56.18
2022-07-26T02:42:14.000Z,56.20
2022-07-26T02:43:14.000Z,56.19
2022-07-26T02:44:14.000Z,56.08
2022-07-26T02:45:14.000Z,55.92
2022-07-26T02:46:14.000Z,55.90
2022-07-26T02:47:14.000Z,55.82
2022-07-26T02:48:14.000Z,56.12
2022-07-26T02:49:14.000Z,56.04
2022-07-26T02:50:15.000Z,56.60
2022-07-26T02:51:14.000Z,56.61
2022-07-26T02:52:14.000Z,56.07
2022-07-26T02:53:14.000Z,56.67
2022-07-26T02:54:14.000Z,56.25
2022-07-26T02:55:15.000Z,56.80
2022-07-26T02:56:14.000Z,56.23
2022-07-26T02:57:14.000Z,56.94
2022-07-26T02:58:14.000Z,56.59
2022-07-26T02:59:14.000Z,56.97
2022-07-26T03:00:16.000Z,56.42
2022-07-26T03:01:14.000Z,56.03
2022-07-26T03:02:14.000Z,56.78
2022-07-26T03:03:14.000Z,56.45
2022-07-26T03:04:14.000Z,55.62
2022-07-26T03:05:14.000Z,55.83
2022-07-26T03:06:14.000Z,55.60
2022-07-26T03:07:13.000Z,55.33
2022-07-26T03:08:14.000Z,54.84
2022-07-26T03:09:14.000Z,54.76
2022-07-26T03:10:14.000Z,54.21
2022-07-26T03:11:14.000Z,54.22
2022-07-26T03:12:14.000Z,54.37
2022-07-26T03:13:14.000Z,54.28
2022-07-26T03:14:13.000Z,54.19
2022-07-26T03:15:14.000Z,54.20
2022-07-26T03:16:14.000Z,54.31
2022-07-26T03:17:14.000Z,54.54
2022-07-26T03:18:13.000Z,54.48
2022-07-26T03:19:14.000Z,54.45
2022-07-26T03:20:14.000Z,54.34
2022-07-26T03:21:14.000Z,54.19
2022-07-26T03:22:14.000Z,53.94
2022-07-26T03:23:14.000Z,53.70
2022-07-26T03:24:14.000Z,53.70
2022-07-26T03:25:13.000Z,53.65
2022-07-26T03:26:14.000Z,53.76
2022-07-26T03:27:14.000Z,53.46
2022-07-26T03:28:13.000Z,53.10
2022-07-26T03:29:13.000Z,53.16
2022-07-26T03:30:14.000Z,52.95
2022-07-26T03:31:13.000Z,52.69
2022-07-26T03:32:14.000Z,52.69
2022-07-26T03:33:14.000Z,52.95
2022-07-26T03:34:13.000Z,52.71
2022-07-26T03:35:14.000Z,52.62
2022-07-26T03:36:13.000Z,52.73
2022-07-26T03:37:14.000Z,52.55
2022-07-26T03:38:13.000Z,52.68
2022-07-26T03:39:13.000Z,52.50
2022-07-26T03:40:14.000Z,52.39
2022-07-26T03:41:13.000Z,52.22
2022-07-26T03:42:14.000Z,52.15
2022-07-26T03:43:14.000Z,51.98
2022-07-26T03:44:13.000Z,51.92
2022-07-26T03:45:14.000Z,51.67
2022-07-26T03:46:13.000Z,51.62
2022-07-26T03:47:14.000Z,51.61
2022-07-26T03:48:14.000Z,51.50
2022-07-26T03:49:14.000Z,51.52
2022-07-26T03:50:13.000Z,51.47
2022-07-26T03:51:13.000Z,51.27
2022-07-26T03:52:13.000Z,51.39
2022-07-26T03:53:13.000Z,51.42
2022-07-26T03:54:13.000Z,51.48
2022-07-26T03:55:19.000Z,51.31
2022-07-26T03:56:19.000Z,51.27
2022-07-26T03:57:14.000Z,51.38
2022-07-26T03:58:15.000Z,51.19
2022-07-26T03:59:14.000Z,51.28
2022-07-26T04:00:14.000Z,51.50
2022-07-26T04:01:13.000Z,51.53
2022-07-26T04:02:14.000Z,51.61
2022-07-26T04:03:13.000Z,51.51
2022-07-26T04:04:15.000Z,52.16
2022-07-26T04:05:14.000Z,52.45
2022-07-26T04:06:14.000Z,52.84
2022-07-26T04:07:13.000Z,53.13
2022-07-26T04:08:14.000Z,52.87
2022-07-26T04:09:14.000Z,53.61
2022-07-26T04:10:16.000Z,53.35
2022-07-26T04:11:13.000Z,53.60
2022-07-26T04:12:13.000Z,53.69
2022-07-26T04:13:13.000Z,53.56
2022-07-26T04:14:14.000Z,52.98
2022-07-26T04:15:15.000Z,53.15
2022-07-26T04:16:13.000Z,53.54
2022-07-26T04:17:13.000Z,53.61
2022-07-26T04:18:14.000Z,53.82
2022-07-26T04:19:13.000Z,53.54
2022-07-26T04:20:14.000Z,53.52
2022-07-26T04:21:14.000Z,53.15
2022-07-26T04:22:13.000Z,53.13
2022-07-26T04:23:13.000Z,52.95
2022-07-26T04:24:13.000Z,53.00
2022-07-26T04:25:13.000Z,52.99
2022-07-26T04:26:14.000Z,52.87
2022-07-26T04:27:13.000Z,52.80
2022-07-26T04:28:14.000Z,52.94
2022-07-26T04:29:14.000Z,52.75
2022-07-26T04:30:14.000Z,52.68
2022-07-26T04:31:14.000Z,52.82
2022-07-26T04:32:13.000Z,52.90
2022-07-26T04:33:13.000Z,52.93
2022-07-26T04:34:13.000Z,52.93
2022-07-26T04:35:14.000Z,53.30
2022-07-26T04:36:13.000Z,53.28
2022-07-26T04:37:13.000Z,53.66
2022-07-26T04:38:13.000Z,53.51
2022-07-26T04:39:13.000Z,53.44
2022-07-26T04:40:16.000Z,53.19
2022-07-26T04:41:13.000Z,53.04
2022-07-26T04:42:13.000Z,52.91
2022-07-26T04:43:13.000Z,52.60
2022-07-26T04:44:14.000Z,52.75
2022-07-26T04:45:14.000Z,52.63
2022-07-26T04:46:13.000Z,52.60
2022-07-26T04:47:13.000Z,52.75
2022-07-26T04:48:14.000Z,52.86
2022-07-26T04:49:14.000Z,52.59
2022-07-26T04:50:15.000Z,52.90
2022-07-26T04:51:14.000Z,52.89
2022-07-26T04:52:14.000Z,52.82
2022-07-26T04:53:14.000Z,53.14
2022-07-26T04:54:19.000Z,53.19
2022-07-26T04:55:15.000Z,52.89
2022-07-26T04:56:14.000Z,52.96
2022-07-26T04:57:14.000Z,52.82
2022-07-26T04:58:14.000Z,53.23
2022-07-26T04:59:15.000Z,53.27
2022-07-26T05:00:17.000Z,53.61
2022-07-26T05:01:14.000Z,52.96
2022-07-26T05:02:14.000Z,53.06
2022-07-26T05:03:14.000Z,52.85
2022-07-26T05:04:14.000Z,52.91
2022-07-26T05:05:15.000Z,53.74
2022-07-26T05:06:14.000Z,54.38
2022-07-26T05:07:14.000Z,54.94
2022-07-26T05:08:15.000Z,54.88
2022-07-26T05:09:14.000Z,55.12
2022-07-26T05:10:16.000Z,55.25
2022-07-26T05:11:14.000Z,54.86
2022-07-26T05:12:14.000Z,55.12
2022-07-26T05:13:14.000Z,56.25
2022-07-26T05:14:14.000Z,55.39
2022-07-26T05:15:14.000Z,55.18
2022-07-26T05:16:14.000Z,55.59
2022-07-26T05:17:14.000Z,55.47
2022-07-26T05:18:14.000Z,55.73
2022-07-26T05:19:14.000Z,55.91
2022-07-26T05:20:15.000Z,56.25
2022-07-26T05:21:14.000Z,55.85
2022-07-26T05:22:13.000Z,57.14
2022-07-26T05:23:15.000Z,58.46
2022-07-26T05:24:13.000Z,59.28
2022-07-26T05:25:14.000Z,58.64
2022-07-26T05:26:13.000Z,58.19
2022-07-26T05:27:13.000Z,59.14
2022-07-26T05:28:13.000Z,60.00
2022-07-26T05:29:13.000Z,59.54
2022-07-26T05:30:14.000Z,60.15
2022-07-26T05:31:14.000Z,60.13
2022-07-26T05:32:14.000Z,60.39
2022-07-26T05:33:13.000Z,60.75
2022-07-26T05:34:13.000Z,60.49
2022-07-26T05:35:14.000Z,60.74
2022-07-26T05:36:14.000Z,61.04
2022-07-26T05:37:14.000Z,60.45
2022-07-26T05:38:13.000Z,60.65
2022-07-26T05:39:13.000Z,60.30
2022-07-26T05:40:14.000Z,60.40
2022-07-26T05:41:13.000Z,59.89
2022-07-26T05:42:13.000Z,59.77
2022-07-26T05:43:13.000Z,60.41
2022-07-26T05:44:14.000Z,60.35
2022-07-26T05:45:14.000Z,60.62
2022-07-26T05:46:17.000Z,60.61
2022-07-26T05:47:13.000Z,60.25
2022-07-26T05:48:13.000Z,60.73
2022-07-26T05:49:13.000Z,60.13
2022-07-26T05:50:13.000Z,60.31
2022-07-26T05:51:13.000Z,60.85
2022-07-26T05:52:14.000Z,60.18
2022-07-26T05:53:14.000Z,59.84
2022-07-26T05:54:13.000Z,60.38
2022-07-26T05:55:14.000Z,60.47
2022-07-26T05:56:14.000Z,59.80
2022-07-26T05:57:14.000Z,60.07
2022-07-26T05:58:14.000Z,59.73
2022-07-26T05:59:14.000Z,60.26
2022-07-26T06:00:14.000Z,60.26
2022-07-26T06:01:14.000Z,60.86
2022-07-26T06:02:14.000Z,60.39
2022-07-26T06:03:19.000Z,60.27
2022-07-26T06:04:14.000Z,60.42
2022-07-26T06:05:14.000Z,60.36
2022-07-26T06:06:14.000Z,60.34
2022-07-26T06:07:14.000Z,60.50
2022-07-26T06:08:14.000Z,60.22
2022-07-26T06:09:14.000Z,60.38
2022-07-26T06:10:13.000Z,60.17
2022-07-26T06:11:14.000Z,60.34
2022-07-26T06:12:14.000Z,60.35
2022-07-26T06:13:14.000Z,59.75
2022-07-26T06:14:14.000Z,59.61
2022-07-26T06:15:14.000Z,59.32
2022-07-26T06:16:14.000Z,59.39
2022-07-26T06:17:14.000Z,59.19
2022-07-26T06:18:14.000Z,59.34
2022-07-26T06:19:14.000Z,59.10
2022-07-26T06:20:14.000Z,58.98
2022-07-26T06:21:13.000Z,58.73
2022-07-26T06:22:13.000Z,58.65
2022-07-26T06:23:13.000Z,58.73
2022-07-26T06:24:13.000Z,58.51
2022-07-26T06:25:13.000Z,58.49
2022-07-26T06:26:13.000Z,57.84
2022-07-26T06:27:13.000Z,57.62
2022-07-26T06:28:13.000Z,57.79
2022-07-26T06:29:13.000Z,57.62
2022-07-26T06:30:14.000Z,57.17
2022-07-26T06:31:13.000Z,57.58
2022-07-26T06:32:13.000Z,57.42
2022-07-26T06:33:14.000Z,57.37
2022-07-26T06:34:14.000Z,57.66
2022-07-26T06:35:14.000Z,57.41
2022-07-26T06:36:13.000Z,57.37
2022-07-26T06:37:13.000Z,57.52
2022-07-26T06:38:13.000Z,57.13
2022-07-26T06:39:13.000Z,57.00
2022-07-26T06:40:14.000Z,56.89
2022-07-26T06:41:14.000Z,56.44
2022-07-26T06:42:13.000Z,55.99
2022-07-26T06:43:13.000Z,56.17
2022-07-26T06:44:13.000Z,56.12
2022-07-26T06:45:14.000Z,56.07
2022-07-26T06:46:15.000Z,55.88
2022-07-26T06:47:13.000Z,55.91
2022-07-26T06:48:14.000Z,55.95
2022-07-26T06:49:13.000Z,55.79
2022-07-26T06:50:13.000Z,55.78
2022-07-26T06:51:14.000Z,55.78
2022-07-26T06:52:14.000Z,55.77
2022-07-26T06:53:14.000Z,55.57
2022-07-26T06:54:14.000Z,55.47
2022-07-26T06:55:14.000Z,55.55
2022-07-26T06:56:16.000Z,55.41
2022-07-26T06:57:14.000Z,54.98
2022-07-26T06:58:14.000Z,55.07
2022-07-26T06:59:14.000Z,54.84
2022-07-26T07:00:15.000Z,54.94
2022-07-26T07:01:14.000Z,54.89
2022-07-26T07:01:14.000Z,54.89
2022-07-26T07:02:14.000Z,54.83
2022-07-26T07:03:14.000Z,54.85
2022-07-26T07:04:14.000Z,54.63
2022-07-26T07:05:14.000Z,54.62
2022-07-26T07:06:14.000Z,54.10
2022-07-26T07:07:14.000Z,54.07
2022-07-26T07:08:14.000Z,54.70
2022-07-26T07:09:14.000Z,54.82
2022-07-26T07:10:14.000Z,54.68
2022-07-26T07:11:14.000Z,54.78
2022-07-26T07:12:14.000Z,54.81
2022-07-26T07:13:14.000Z,54.72
2022-07-26T07:14:14.000Z,54.61
2022-07-26T07:15:14.000Z,54.58
2022-07-26T07:16:14.000Z,55.07
2022-07-26T07:17:18.000Z,55.05
2022-07-26T07:18:14.000Z,54.65
2022-07-26T07:19:14.000Z,54.31
2022-07-26T07:20:14.000Z,54.05
2022-07-26T07:21:14.000Z,53.90
2022-07-26T07:22:14.000Z,52.81
2022-07-26T07:23:13.000Z,52.69
2022-07-26T07:24:13.000Z,52.64
2022-07-26T07:25:13.000Z,52.72
2022-07-26T07:26:13.000Z,52.29
2022-07-26T07:27:13.000Z,52.59
2022-07-26T07:28:13.000Z,51.89
2022-07-26T07:29:15.000Z,51.80
2022-07-26T07:30:15.000Z,51.39
2022-07-26T07:31:13.000Z,51.88
2022-07-26T07:32:15.000Z,51.84
2022-07-26T07:33:14.000Z,52.09
2022-07-26T07:34:14.000Z,52.44
2022-07-26T07:35:13.000Z,52.52
2022-07-26T07:36:13.000Z,52.52
2022-07-26T07:37:14.000Z,52.49
2022-07-26T07:38:13.000Z,52.71
2022-07-26T07:39:14.000Z,52.34
2022-07-26T07:40:14.000Z,52.09
2022-07-26T07:41:13.000Z,52.16
2022-07-26T07:42:13.000Z,52.09
2022-07-26T07:43:13.000Z,52.06
2022-07-26T07:44:14.000Z,52.27
2022-07-26T07:45:13.000Z,51.64
2022-07-26T07:46:13.000Z,51.37
2022-07-26T07:47:13.000Z,51.40
2022-07-26T07:48:13.000Z,51.71
2022-07-26T07:49:14.000Z,51.70
2022-07-26T07:50:13.000Z,51.65
2022-07-26T07:51:13.000Z,51.04
2022-07-26T07:52:13.000Z,51.29
2022-07-26T07:53:13.000Z,51.04
2022-07-26T07:54:14.000Z,50.52
2022-07-26T07:55:13.000Z,50.52
2022-07-26T07:56:14.000Z,50.67
2022-07-26T07:57:13.000Z,51.79
2022-07-26T07:58:15.000Z,52.57
2022-07-26T07:59:14.000Z,52.81
2022-07-26T08:00:15.000Z,52.52
2022-07-26T08:01:13.000Z,52.63
2022-07-26T08:02:14.000Z,52.49
2022-07-26T08:03:14.000Z,52.24
2022-07-26T08:04:13.000Z,51.79
2022-07-26T08:05:14.000Z,51.16
2022-07-26T08:06:13.000Z,51.18
2022-07-26T08:07:13.000Z,50.84
2022-07-26T08:08:15.000Z,51.01
2022-07-26T08:09:14.000Z,50.65
2022-07-26T08:10:15.000Z,50.60
2022-07-26T08:11:14.000Z,49.70
2022-07-26T08:12:13.000Z,49.19
2022-07-26T08:13:13.000Z,48.68
2022-07-26T08:14:13.000Z,49.04
2022-07-26T08:15:14.000Z,49.29
2022-07-26T08:16:14.000Z,48.92
2022-07-26T08:17:13.000Z,48.74
2022-07-26T08:18:13.000Z,48.41
2022-07-26T08:19:13.000Z,48.26
2022-07-26T08:20:14.000Z,48.26
2022-07-26T08:21:13.000Z,48.49
2022-07-26T08:22:13.000Z,48.56
2022-07-26T08:23:14.000Z,48.42
2022-07-26T08:24:13.000Z,48.05
2022-07-26T08:25:13.000Z,48.23
2022-07-26T08:26:14.000Z,48.02
2022-07-26T08:27:13.000Z,47.93
2022-07-26T08:28:15.000Z,48.43
2022-07-26T08:29:13.000Z,48.42
2022-07-26T08:30:13.000Z,48.76
2022-07-26T08:31:14.000Z,48.90
2022-07-26T08:32:13.000Z,48.28
2022-07-26T08:33:13.000Z,48.43
2022-07-26T08:34:13.000Z,48.19
2022-07-26T08:35:13.000Z,48.17
2022-07-26T08:36:15.000Z,47.88
2022-07-26T08:37:14.000Z,47.56
2022-07-26T08:38:13.000Z,47.57
2022-07-26T08:39:14.000Z,47.41
2022-07-26T08:40:13.000Z,47.28
2022-07-26T08:41:15.000Z,47.01
2022-07-26T08:42:16.000Z,47.31
2022-07-26T08:43:13.000Z,47.12
2022-07-26T08:44:14.000Z,47.03
2022-07-26T08:45:20.000Z,46.88
2022-07-26T08:46:14.000Z,46.65
2022-07-26T08:47:17.000Z,46.39
2022-07-26T08:48:13.000Z,46.50
2022-07-26T08:49:13.000Z,46.55
2022-07-26T08:50:14.000Z,46.25
2022-07-26T08:51:17.000Z,45.68
2022-07-26T08:52:14.000Z,45.69
2022-07-26T08:53:15.000Z,45.44
2022-07-26T08:54:13.000Z,44.59
2022-07-26T08:55:15.000Z,44.66
2022-07-26T08:56:13.000Z,45.07
2022-07-26T08:57:14.000Z,44.84
2022-07-26T08:58:13.000Z,44.84
2022-07-26T08:59:16.000Z,45.19
2022-07-26T09:00:20.000Z,44.49
2022-07-26T09:01:14.000Z,44.29
2022-07-26T09:02:13.000Z,44.75
2022-07-26T09:03:23.000Z,44.06
2022-07-26T09:04:23.000Z,44.47
2022-07-26T09:05:17.000Z,44.59
2022-07-26T09:06:20.000Z,44.49
2022-07-26T09:07:16.000Z,44.57
2022-07-26T09:08:23.000Z,44.82
2022-07-26T09:09:13.000Z,44.19
2022-07-26T09:10:14.000Z,44.70
2022-07-26T09:11:26.000Z,44.93
2022-07-26T09:12:16.000Z,44.83
2022-07-26T09:13:15.000Z,44.63
2022-07-26T09:14:13.000Z,44.84
2022-07-26T09:15:19.000Z,45.25
2022-07-26T09:16:13.000Z,45.32
2022-07-26T09:17:16.000Z,45.59
2022-07-26T09:18:23.000Z,45.48
2022-07-26T09:19:19.000Z,45.62
2022-07-26T09:20:16.000Z,45.24
2022-07-26T09:21:23.000Z,45.24
2022-07-26T09:22:14.000Z,44.96
2022-07-26T09:23:14.000Z,44.60
2022-07-26T09:24:35.000Z,44.68
2022-07-26T09:25:20.000Z,44.85
2022-07-26T09:26:18.000Z,45.01
2022-07-26T09:27:15.000Z,45.08
2022-07-26T09:28:25.000Z,44.93
2022-07-26T09:29:13.000Z,45.00
2022-07-26T09:30:13.000Z,44.94
2022-07-26T09:31:20.000Z,45.09
2022-07-26T09:32:20.000Z,45.05
2022-07-26T09:33:13.000Z,45.07
2022-07-26T09:34:23.000Z,44.78
2022-07-26T09:35:16.000Z,44.67
2022-07-26T09:36:14.000Z,44.16
2022-07-26T09:37:14.000Z,43.67
2022-07-26T09:38:14.000Z,43.73
2022-07-26T09:39:13.000Z,43.27
2022-07-26T09:40:16.000Z,43.29
2022-07-26T09:41:23.000Z,43.45
2022-07-26T09:42:13.000Z,43.58
2022-07-26T09:43:15.000Z,43.44
2022-07-26T09:44:22.000Z,43.66
2022-07-26T09:45:15.000Z,43.34
2022-07-26T09:46:14.000Z,43.26
2022-07-26T09:47:13.000Z,43.38
2022-07-26T09:48:25.000Z,43.11
2022-07-26T09:49:16.000Z,42.96
2022-07-26T09:50:16.000Z,43.09
2022-07-26T09:51:13.000Z,43.11
2022-07-26T09:52:19.000Z,43.08
2022-07-26T09:53:13.000Z,43.26
2022-07-26T09:54:28.000Z,43.19
2022-07-26T09:55:15.000Z,43.33
2022-07-26T09:56:13.000Z,43.47
2022-07-26T09:57:15.000Z,43.51
2022-07-26T09:58:15.000Z,44.01
2022-07-26T09:59:17.000Z,43.56
2022-07-26T10:00:14.000Z,42.96
2022-07-26T10:01:13.000Z,43.19
2022-07-26T10:02:13.000Z,43.02
2022-07-26T10:03:14.000Z,43.22
2022-07-26T10:04:14.000Z,43.34
2022-07-26T10:05:13.000Z,43.13
2022-07-26T10:06:13.000Z,43.09
2022-07-26T10:07:15.000Z,43.05
2022-07-26T10:08:16.000Z,43.12
2022-07-26T10:09:15.000Z,43.21
2022-07-26T10:10:20.000Z,43.44
2022-07-26T10:11:14.000Z,43.60
2022-07-26T10:12:15.000Z,43.47
2022-07-26T10:13:15.000Z,43.83
2022-07-26T10:14:23.000Z,43.76
2022-07-26T10:15:23.000Z,43.75
2022-07-26T10:16:23.000Z,43.58
2022-07-26T10:17:23.000Z,43.66
2022-07-26T10:18:23.000Z,43.40
2022-07-26T10:19:33.000Z,43.61
2022-07-26T10:20:23.000Z,43.46
2022-07-26T10:21:22.000Z,43.64
2022-07-26T10:22:36.000Z,43.59
2022-07-26T10:23:23.000Z,43.08
2022-07-26T10:24:23.000Z,43.34
2022-07-26T10:25:47.000Z,43.39
2022-07-26T10:26:23.000Z,43.32
2022-07-26T10:27:23.000Z,43.55
2022-07-26T10:28:24.000Z,43.41
2022-07-26T10:29:19.000Z,43.87
2022-07-26T10:30:21.000Z,43.18
2022-07-26T10:31:23.000Z,43.20
2022-07-26T10:32:14.000Z,43.29
2022-07-26T10:33:16.000Z,43.21
2022-07-26T10:34:23.000Z,43.37
2022-07-26T10:35:23.000Z,43.42
2022-07-26T10:36:26.000Z,43.52
2022-07-26T10:37:20.000Z,43.06
2022-07-26T10:38:31.000Z,43.22
2022-07-26T10:39:14.000Z,43.06
2022-07-26T10:40:16.000Z,43.13
2022-07-26T10:41:29.000Z,42.81
2022-07-26T10:42:13.000Z,42.91
2022-07-26T10:43:16.000Z,43.07
2022-07-26T10:44:20.000Z,42.70
2022-07-26T10:45:19.000Z,42.87
2022-07-26T10:46:31.000Z,42.73
2022-07-26T10:47:18.000Z,42.49
2022-07-26T10:48:16.000Z,42.30
2022-07-26T10:49:16.000Z,42.21
2022-07-26T10:50:31.000Z,42.35
2022-07-26T10:51:22.000Z,42.19
2022-07-26T10:52:22.000Z,42.04
2022-07-26T10:53:19.000Z,41.96
2022-07-26T10:54:15.000Z,42.04
2022-07-26T10:55:13.000Z,42.46
2022-07-26T10:56:13.000Z,42.46
2022-07-26T10:57:14.000Z,42.24
2022-07-26T10:58:14.000Z,41.68
2022-07-26T10:59:32.000Z,41.89
2022-07-26T11:00:20.000Z,42.05
2022-07-26T11:01:14.000Z,42.09
2022-07-26T11:02:18.000Z,42.00
2022-07-26T11:03:14.000Z,42.15
2022-07-26T11:04:17.000Z,42.58
2022-07-26T11:05:15.000Z,42.36
2022-07-26T11:06:17.000Z,42.32
2022-07-26T11:07:14.000Z,42.31
2022-07-26T11:08:14.000Z,42.21
2022-07-26T11:09:15.000Z,42.11
2022-07-26T11:10:14.000Z,42.27
2022-07-26T11:11:26.000Z,42.26
2022-07-26T11:12:17.000Z,42.35
2022-07-26T11:13:19.000Z,42.28
2022-07-26T11:14:15.000Z,42.29
2022-07-26T11:15:16.000Z,41.89
2022-07-26T11:16:14.000Z,41.47
2022-07-26T11:17:25.000Z,41.69
2022-07-26T11:18:33.000Z,41.47
2022-07-26T11:19:23.000Z,41.26
2022-07-26T11:20:23.000Z,40.98
2022-07-26T11:21:15.000Z,40.49
2022-07-26T11:22:14.000Z,40.19
2022-07-26T11:23:37.000Z,40.09
2022-07-26T11:24:14.000Z,39.98
2022-07-26T11:25:19.000Z,39.95
2022-07-26T11:26:19.000Z,39.96
2022-07-26T11:27:14.000Z,40.56
2022-07-26T11:28:13.000Z,40.41
2022-07-26T11:29:14.000Z,40.49
2022-07-26T11:30:13.000Z,40.53
2022-07-26T11:31:16.000Z,40.85
2022-07-26T11:32:18.000Z,40.52
2022-07-26T11:33:13.000Z,40.63
2022-07-26T11:34:16.000Z,40.21
2022-07-26T11:35:13.000Z,40.14
2022-07-26T11:36:14.000Z,40.20
2022-07-26T11:37:14.000Z,40.12
2022-07-26T11:38:13.000Z,40.11
2022-07-26T11:39:20.000Z,40.34
2022-07-26T11:40:13.000Z,40.31
2022-07-26T11:41:21.000Z,40.05
2022-07-26T11:42:18.000Z,40.16
2022-07-26T11:43:14.000Z,40.12
2022-07-26T11:44:18.000Z,40.15
2022-07-26T11:45:14.000Z,40.11
2022-07-26T11:46:15.000Z,40.46
2022-07-26T11:47:19.000Z,39.97
2022-07-26T11:48:13.000Z,39.53
2022-07-26T11:49:20.000Z,39.97
2022-07-26T11:50:14.000Z,39.87
2022-07-26T11:51:19.000Z,39.89
2022-07-26T11:52:15.000Z,40.10
2022-07-26T11:53:21.000Z,39.46
2022-07-26T11:54:14.000Z,39.61
2022-07-26T11:55:23.000Z,38.87
2022-07-26T11:56:20.000Z,38.53
2022-07-26T11:57:13.000Z,37.98
2022-07-26T11:58:13.000Z,37.85
2022-07-26T11:59:13.000Z,37.50
2022-07-26T12:00:16.000Z,37.20
2022-07-26T12:01:15.000Z,37.63
2022-07-26T12:02:13.000Z,37.33
2022-07-26T12:03:13.000Z,37.60
2022-07-26T12:04:22.000Z,37.77
2022-07-26T12:05:19.000Z,38.01
2022-07-26T12:06:16.000Z,38.15
2022-07-26T12:07:15.000Z,37.64
2022-07-26T12:08:13.000Z,37.13
2022-07-26T12:09:23.000Z,37.06
2022-07-26T12:10:14.000Z,37.06
2022-07-26T12:11:15.000Z,37.08
2022-07-26T12:12:22.000Z,37.12
2022-07-26T12:13:14.000Z,37.27
2022-07-26T12:14:23.000Z,37.17
2022-07-26T12:15:14.000Z,37.10
2022-07-26T12:16:23.000Z,36.72
2022-07-26T12:17:15.000Z,36.54
2022-07-26T12:18:23.000Z,36.34
2022-07-26T12:19:31.000Z,36.06
2022-07-26T12:20:15.000Z,36.08
2022-07-26T12:21:13.000Z,36.25
2022-07-26T12:22:18.000Z,36.43
2022-07-26T12:23:13.000Z,36.21
2022-07-26T12:24:23.000Z,35.47
2022-07-26T12:25:23.000Z,35.69
2022-07-26T12:26:21.000Z,35.05
2022-07-26T12:27:32.000Z,35.78
2022-07-26T12:28:13.000Z,35.67
2022-07-26T12:29:25.000Z,35.45
2022-07-26T12:30:14.000Z,35.29
2022-07-26T12:31:22.000Z,35.55
2022-07-26T12:32:16.000Z,35.45
2022-07-26T12:33:13.000Z,35.21
2022-07-26T12:34:19.000Z,35.59
2022-07-26T12:35:15.000Z,35.62
2022-07-26T12:36:17.000Z,35.37
2022-07-26T12:37:15.000Z,35.40
2022-07-26T12:38:13.000Z,35.34
2022-07-26T12:39:19.000Z,34.81
2022-07-26T12:40:18.000Z,35.44
2022-07-26T12:41:23.000Z,35.30
2022-07-26T12:42:19.000Z,35.05
2022-07-26T12:43:13.000Z,35.66
2022-07-26T12:44:15.000Z,35.54
2022-07-26T12:45:18.000Z,35.58
2022-07-26T12:46:13.000Z,35.78
2022-07-26T12:47:13.000Z,35.73
2022-07-26T12:48:13.000Z,35.92
2022-07-26T12:49:13.000Z,36.09
2022-07-26T12:50:16.000Z,36.24
2022-07-26T12:51:13.000Z,36.08